Time;durP1;ratioP1;P1;durP2;ratioP2;P2;SDS_P1;SDS_P2;PMS_P1;PMS_P2;Temp;Humidity;BMP_temperature;BMP_pressure;BME280_temperature;BME280_humidity;BME280_pressure;Samples;Min_cycle;Max_cycle;Signal;HPM_P1;HPM_P2
2024/01/21 00:01:00;;;;;;;3.47;3.17;;;0.50;99.90;;;;;;5034934;28;20033;-77
2024/01/21 00:03:26;;;;;;;3.63;3.43;;;0.50;99.90;;;;;;5029561;28;20046;-77
2024/01/21 00:05:51;;;;;;;3.03;2.83;;;0.50;99.90;;;;;;5017100;28;20045;-77
2024/01/21 00:08:17;;;;;;;2.13;1.70;;;0.50;99.90;;;;;;5023643;28;20072;-77
2024/01/21 00:10:42;;;;;;;1.90;1.80;;;0.50;99.90;;;;;;5040447;28;20098;-77
2024/01/21 00:13:08;;;;;;;2.23;2.13;;;0.50;99.90;;;;;;5029627;28;20072;-78
2024/01/21 00:15:33;;;;;;;2.57;2.37;;;0.50;99.90;;;;;;5029070;28;20045;-78
2024/01/21 00:18:00;;;;;;;2.03;1.87;;;0.50;99.90;;;;;;5037519;28;20033;-78
2024/01/21 00:20:25;;;;;;;2.80;2.60;;;0.50;99.90;;;;;;5013286;28;20522;-78
2024/01/21 00:22:51;;;;;;;4.17;3.17;;;0.50;99.90;;;;;;5023111;28;20044;-78
2024/01/21 00:25:16;;;;;;;3.43;3.13;;;0.50;99.90;;;;;;5011721;28;20053;-77
2024/01/21 00:27:42;;;;;;;4.20;3.90;;;0.50;99.90;;;;;;5039732;28;20477;-77
2024/01/21 00:30:08;;;;;;;2.13;2.03;;;0.50;99.90;;;;;;5032858;28;20044;-78
2024/01/21 00:32:33;;;;;;;3.47;2.77;;;0.50;99.90;;;;;;5041977;28;20120;-77
2024/01/21 00:34:59;;;;;;;5.93;5.43;;;0.50;99.90;;;;;;5029900;28;20042;-78
2024/01/21 00:37:24;;;;;;;1.50;1.40;;;0.50;99.90;;;;;;5022052;28;20038;-77
2024/01/21 00:39:50;;;;;;;7.90;2.67;;;0.50;99.90;;;;;;5015640;28;20102;-78
2024/01/21 00:42:15;;;;;;;4.20;3.80;;;0.50;99.90;;;;;;5042064;28;20132;-77
2024/01/21 00:44:41;;;;;;;4.10;3.37;;;0.50;99.90;;;;;;5025316;28;20049;-77
2024/01/21 00:47:07;;;;;;;2.67;2.40;;;0.50;99.90;;;;;;5036690;28;20435;-77
2024/01/21 00:49:32;;;;;;;2.13;2.03;;;0.50;99.90;;;;;;5023815;28;20046;-77
2024/01/21 00:51:58;;;;;;;3.20;2.80;;;0.50;99.90;;;;;;5038118;28;20041;-77
2024/01/21 00:54:24;;;;;;;2.83;2.73;;;0.50;99.90;;;;;;5029754;28;20044;-77
2024/01/21 00:56:49;;;;;;;5.73;2.37;;;0.50;99.90;;;;;;5036155;28;20497;-79
2024/01/21 00:59:15;;;;;;;2.47;2.30;;;0.60;99.90;;;;;;5034493;28;20096;-78
2024/01/21 01:01:41;;;;;;;3.97;2.93;;;0.50;99.90;;;;;;5041692;28;20041;-77
2024/01/21 01:04:06;;;;;;;5.37;2.93;;;0.50;99.90;;;;;;5017084;28;20044;-77
2024/01/21 01:06:33;;;;;;;3.47;3.27;;;0.50;99.90;;;;;;5021737;28;20877;-77
2024/01/21 01:08:58;;;;;;;4.60;3.57;;;0.60;99.90;;;;;;5028529;28;20073;-77
2024/01/21 01:11:24;;;;;;;1.47;1.47;;;0.60;99.90;;;;;;5023622;28;20045;-77
2024/01/21 01:13:50;;;;;;;1.63;1.53;;;0.60;99.90;;;;;;5023078;28;20111;-78
2024/01/21 01:16:16;;;;;;;2.43;2.33;;;0.60;99.90;;;;;;5023417;28;20133;-77
2024/01/21 01:18:42;;;;;;;3.70;3.47;;;0.60;99.90;;;;;;5041372;28;20468;-77
2024/01/21 01:21:10;;;;;;;2.07;1.97;;;0.60;99.90;;;;;;5041025;28;20045;-77
2024/01/21 01:23:39;;;;;;;6.93;3.93;;;0.60;99.90;;;;;;5025504;28;20091;-78
2024/01/21 01:26:07;;;;;;;4.57;2.77;;;0.60;99.90;;;;;;5031685;28;20219;-78
2024/01/21 01:28:33;;;;;;;5.30;2.30;;;0.60;99.90;;;;;;5043579;28;20507;-77
2024/01/21 01:30:58;;;;;;;2.13;2.00;;;0.60;99.90;;;;;;5035120;28;20032;-77
2024/01/21 01:33:24;;;;;;;1.47;1.43;;;0.60;99.90;;;;;;5045276;28;20063;-78
2024/01/21 01:35:50;;;;;;;2.20;2.10;;;0.60;99.90;;;;;;5029904;28;20084;-78
2024/01/21 01:38:16;;;;;;;1.67;1.13;;;0.60;99.90;;;;;;5024915;28;20033;-77
2024/01/21 01:40:41;;;;;;;10.17;3.77;;;0.60;99.90;;;;;;5043719;28;20040;-77
2024/01/21 01:43:07;;;;;;;7.93;2.10;;;0.60;99.90;;;;;;5043453;28;20071;-77
2024/01/21 01:45:32;;;;;;;5.63;2.90;;;0.60;99.90;;;;;;5045038;28;20033;-77
2024/01/21 01:47:58;;;;;;;2.93;2.63;;;0.60;99.90;;;;;;5026209;28;20057;-77
2024/01/21 01:50:25;;;;;;;2.30;2.20;;;0.60;99.90;;;;;;5039878;28;20391;-78
2024/01/21 01:52:51;;;;;;;3.50;2.37;;;0.60;99.90;;;;;;5023782;28;20042;-78
2024/01/21 01:55:18;;;;;;;7.57;2.13;;;0.60;99.90;;;;;;5025445;28;20049;-78
2024/01/21 01:57:48;;;;;;;3.27;3.03;;;0.50;99.90;;;;;;5033652;28;20029;-77
2024/01/21 02:00:14;;;;;;;6.57;2.90;;;0.60;99.90;;;;;;5043637;28;20053;-78
2024/01/21 02:02:43;;;;;;;2.83;2.63;;;0.50;99.90;;;;;;5040012;28;20053;-77
2024/01/21 02:05:09;;;;;;;2.10;2.00;;;0.50;99.90;;;;;;5104335;22;20625;-78
2024/01/21 02:07:34;;;;;;;0.53;0.53;;;0.50;99.90;;;;;;4979101;28;20097;-78
2024/01/21 02:10:01;;;;;;;4.63;2.33;;;0.50;99.90;;;;;;5002901;28;20089;-78
2024/01/21 02:12:27;;;;;;;1.80;1.67;;;0.50;99.90;;;;;;4996897;28;20035;-77
2024/01/21 02:14:53;;;;;;;1.87;1.77;;;0.40;99.90;;;;;;4989891;28;20068;-78
2024/01/21 02:17:19;;;;;;;2.40;1.50;;;0.40;99.90;;;;;;4984555;28;20050;-77
2024/01/21 02:19:44;;;;;;;1.57;1.47;;;0.40;99.90;;;;;;4987285;28;20049;-78
2024/01/21 02:22:10;;;;;;;2.20;2.10;;;0.40;99.90;;;;;;4999809;28;20038;-78
2024/01/21 02:24:36;;;;;;;3.03;2.77;;;0.40;99.90;;;;;;4984750;28;20041;-77
2024/01/21 02:27:01;;;;;;;1.47;1.43;;;0.40;99.90;;;;;;4985904;28;20399;-77
2024/01/21 02:29:27;;;;;;;7.07;2.43;;;0.40;99.90;;;;;;4987004;28;20036;-78
2024/01/21 02:31:53;;;;;;;5.77;2.77;;;0.40;99.90;;;;;;4996067;28;20065;-78
2024/01/21 02:34:20;;;;;;;8.77;2.23;;;0.50;99.90;;;;;;4987337;28;20054;-78
2024/01/21 02:36:46;;;;;;;3.47;3.17;;;0.50;99.90;;;;;;4985102;28;20401;-78
2024/01/21 02:39:12;;;;;;;1.87;1.77;;;0.50;99.90;;;;;;4982939;28;20051;-78
2024/01/21 02:41:38;;;;;;;3.17;1.70;;;0.50;99.90;;;;;;4986655;28;20041;-77
2024/01/21 02:44:03;;;;;;;1.20;1.20;;;0.50;99.90;;;;;;4966709;28;20385;-77
2024/01/21 02:46:29;;;;;;;1.37;1.33;;;0.50;99.90;;;;;;4987287;28;20069;-77
2024/01/21 02:48:54;;;;;;;4.20;1.70;;;0.50;99.90;;;;;;5003185;28;20046;-78
2024/01/21 02:51:20;;;;;;;2.10;2.00;;;0.60;99.90;;;;;;4987138;28;20046;-79
2024/01/21 02:53:45;;;;;;;2.57;1.40;;;0.60;99.90;;;;;;5003516;28;20042;-78
2024/01/21 02:56:25;;;;;;;2.30;2.20;;;0.60;99.90;;;;;;5003784;28;20034;-78
2024/01/21 02:58:52;;;;;;;1.87;1.77;;;0.60;99.90;;;;;;4986168;28;20411;-78
2024/01/21 03:01:18;;;;;;;1.20;1.10;;;0.60;99.90;;;;;;4996888;28;20046;-77
2024/01/21 03:03:44;;;;;;;2.40;2.20;;;0.60;99.90;;;;;;4989266;28;20164;-78
2024/01/21 03:06:09;;;;;;;1.20;1.20;;;0.60;99.90;;;;;;4997489;28;20141;-78
2024/01/21 03:08:35;;;;;;;0.87;0.87;;;0.60;99.90;;;;;;4985252;28;20123;-78
2024/01/21 03:11:02;;;;;;;1.83;1.67;;;0.60;99.90;;;;;;4985427;28;20794;-77
2024/01/21 03:13:28;;;;;;;2.23;2.13;;;0.60;99.90;;;;;;4986068;28;20053;-78
2024/01/21 03:15:54;;;;;;;1.37;1.37;;;0.60;99.90;;;;;;4985197;28;20150;-78
2024/01/21 03:18:20;;;;;;;3.07;2.87;;;0.60;99.90;;;;;;5003101;28;20037;-79
2024/01/21 03:20:47;;;;;;;1.60;1.50;;;0.60;99.90;;;;;;4986293;28;20121;-78
2024/01/21 03:23:12;;;;;;;4.03;2.20;;;0.60;99.90;;;;;;4984673;28;20073;-78
2024/01/21 03:25:38;;;;;;;2.03;1.80;;;0.60;99.90;;;;;;5002527;28;20044;-78
2024/01/21 03:28:04;;;;;;;3.60;3.30;;;0.60;99.90;;;;;;4984561;28;20046;-77
2024/01/21 03:30:30;;;;;;;2.07;1.73;;;0.60;99.90;;;;;;4985677;28;20038;-78
2024/01/21 03:32:55;;;;;;;1.93;1.73;;;0.60;99.90;;;;;;5002982;28;20377;-78
2024/01/21 03:35:21;;;;;;;2.43;2.23;;;0.60;99.90;;;;;;4981933;28;20050;-78
2024/01/21 03:37:47;;;;;;;4.73;2.20;;;0.60;99.90;;;;;;4983695;28;20039;-78
2024/01/21 03:40:12;;;;;;;1.90;1.73;;;0.60;99.90;;;;;;4983483;28;20146;-78
2024/01/21 03:42:38;;;;;;;1.73;1.63;;;0.60;99.90;;;;;;4966094;28;20157;-77
2024/01/21 03:45:05;;;;;;;1.53;1.43;;;0.60;99.90;;;;;;4981494;28;20209;-78
2024/01/21 03:47:31;;;;;;;1.50;1.40;;;0.60;99.90;;;;;;4995706;28;20046;-77
2024/01/21 03:49:57;;;;;;;4.77;1.90;;;0.60;99.90;;;;;;4986911;28;20444;-77
2024/01/21 03:52:22;;;;;;;1.63;1.53;;;0.60;99.90;;;;;;5002038;28;20050;-77
2024/01/21 03:54:48;;;;;;;1.63;1.53;;;0.60;99.90;;;;;;5002152;28;20038;-77
2024/01/21 03:57:13;;;;;;;5.80;2.13;;;0.60;99.90;;;;;;4984829;28;20100;-78
2024/01/21 03:59:40;;;;;;;1.07;1.07;;;0.60;99.90;;;;;;5000615;28;20045;-78
2024/01/21 04:02:05;;;;;;;1.40;1.30;;;0.60;99.90;;;;;;4996056;28;20060;-78
2024/01/21 04:04:31;;;;;;;4.83;2.27;;;0.60;99.90;;;;;;4998585;28;20042;-78
2024/01/21 04:06:57;;;;;;;3.50;1.87;;;0.60;99.90;;;;;;4983102;28;20081;-78
2024/01/21 04:09:23;;;;;;;5.93;3.17;;;0.60;99.90;;;;;;4982729;28;20048;-78
2024/01/21 04:11:52;;;;;;;0.90;0.90;;;0.60;99.90;;;;;;4984329;28;20100;-78
2024/01/21 04:14:17;;;;;;;1.97;1.73;;;0.70;99.90;;;;;;4991893;28;20044;-78
2024/01/21 04:16:43;;;;;;;1.90;1.80;;;0.70;99.90;;;;;;4982077;28;20052;-77
2024/01/21 04:19:09;;;;;;;1.80;1.70;;;0.70;99.90;;;;;;4984224;28;20038;-77
2024/01/21 04:21:35;;;;;;;2.43;2.13;;;0.70;99.90;;;;;;5002290;28;20050;-77
2024/01/21 04:24:04;;;;;;;3.83;1.50;;;0.70;99.90;;;;;;5000977;28;20121;-77
2024/01/21 04:26:31;;;;;;;2.97;0.90;;;0.70;99.90;;;;;;4981338;28;20053;-77
2024/01/21 04:28:56;;;;;;;1.67;1.13;;;0.70;99.90;;;;;;4983821;28;20046;-77
2024/01/21 04:31:22;;;;;;;2.03;1.80;;;0.70;99.90;;;;;;4982616;28;20104;-78
2024/01/21 04:33:48;;;;;;;1.73;1.63;;;0.70;99.90;;;;;;4992610;28;20042;-78
2024/01/21 04:36:20;;;;;;;0.63;0.63;;;0.80;99.90;;;;;;4994717;28;20045;-78
2024/01/21 04:38:46;;;;;;;0.93;0.93;;;0.80;99.90;;;;;;4968034;28;20095;-78
2024/01/21 04:41:13;;;;;;;1.70;1.60;;;0.80;99.90;;;;;;4998565;28;20151;-78
2024/01/21 04:43:38;;;;;;;0.67;0.60;;;0.80;99.90;;;;;;4968698;28;20052;-78
2024/01/21 04:46:04;;;;;;;2.37;2.17;;;0.90;99.90;;;;;;4983738;28;20651;-78
2024/01/21 04:48:30;;;;;;;1.70;1.60;;;0.90;99.90;;;;;;4984651;28;20045;-78
2024/01/21 04:50:55;;;;;;;0.63;0.63;;;0.90;99.90;;;;;;4984039;28;20397;-78
2024/01/21 04:53:21;;;;;;;0.70;0.70;;;0.90;99.90;;;;;;5001327;28;20037;-78
2024/01/21 04:55:46;;;;;;;0.87;0.67;;;1.00;99.90;;;;;;4984339;28;20042;-78
2024/01/21 04:58:12;;;;;;;1.50;1.47;;;1.00;99.90;;;;;;4967684;28;20054;-78
2024/01/21 05:00:37;;;;;;;2.07;1.97;;;1.10;99.90;;;;;;4975583;28;20042;-78
2024/01/21 05:03:03;;;;;;;2.17;1.23;;;1.00;99.90;;;;;;5002999;28;20500;-78
2024/01/21 05:05:29;;;;;;;3.10;0.70;;;1.10;99.90;;;;;;4987960;28;20053;-78
2024/01/21 05:07:54;;;;;;;1.33;0.93;;;1.10;99.90;;;;;;4991176;28;20042;-78
2024/01/21 05:10:20;;;;;;;3.20;1.20;;;1.20;99.90;;;;;;4986454;28;20661;-79
2024/01/21 05:12:45;;;;;;;1.47;1.37;;;1.20;99.90;;;;;;4992309;28;20092;-78
2024/01/21 05:15:11;;;;;;;2.67;2.33;;;1.20;99.90;;;;;;4984485;28;20050;-78
2024/01/21 05:17:36;;;;;;;1.37;0.97;;;1.20;99.90;;;;;;4987648;28;20045;-78
2024/01/21 05:20:03;;;;;;;1.40;1.33;;;1.30;99.90;;;;;;4987491;28;20042;-78
2024/01/21 05:22:29;;;;;;;9.63;1.90;;;1.30;99.90;;;;;;4970910;28;20121;-78
2024/01/21 05:24:55;;;;;;;0.53;0.53;;;1.30;99.90;;;;;;5005190;28;20053;-79
2024/01/21 05:27:21;;;;;;;3.30;2.10;;;1.30;99.90;;;;;;4987468;28;20038;-79
2024/01/21 05:29:47;;;;;;;1.37;1.27;;;1.40;99.90;;;;;;4988487;28;20412;-78
2024/01/21 05:32:13;;;;;;;1.30;1.20;;;1.30;99.90;;;;;;5003523;28;20042;-78
2024/01/21 05:34:38;;;;;;;0.73;0.73;;;1.40;99.90;;;;;;5005315;28;20099;-78
2024/01/21 05:37:04;;;;;;;1.93;1.77;;;1.40;99.90;;;;;;4983626;28;20653;-78
2024/01/21 05:39:31;;;;;;;0.87;0.87;;;1.40;99.90;;;;;;4989651;28;20188;-78
2024/01/21 05:42:01;;;;;;;5.07;2.30;;;1.40;99.90;;;;;;4986609;28;20034;-78
2024/01/21 05:44:27;;;;;;;1.50;1.43;;;1.40;99.90;;;;;;5002950;28;20122;-78
2024/01/21 05:46:53;;;;;;;2.87;1.47;;;1.40;99.90;;;;;;4975074;28;20173;-78
2024/01/21 05:49:18;;;;;;;1.43;1.33;;;1.40;99.90;;;;;;4982252;28;20400;-78
2024/01/21 05:51:44;;;;;;;0.70;0.70;;;1.40;99.90;;;;;;4994253;28;20455;-78
2024/01/21 05:54:09;;;;;;;1.70;1.10;;;1.40;99.90;;;;;;4982847;28;20058;-78
2024/01/21 05:56:36;;;;;;;1.57;1.47;;;1.40;99.90;;;;;;4984459;28;20042;-78
2024/01/21 05:59:02;;;;;;;1.30;1.30;;;1.40;99.90;;;;;;4987905;28;20050;-78
2024/01/21 06:01:27;;;;;;;1.63;1.53;;;1.40;99.90;;;;;;4999686;28;20057;-78
2024/01/21 06:03:53;;;;;;;1.40;0.83;;;1.40;99.90;;;;;;5001762;28;20042;-78
2024/01/21 06:06:18;;;;;;;2.07;1.60;;;1.40;99.90;;;;;;4969050;28;20097;-78
2024/01/21 06:08:44;;;;;;;0.73;0.73;;;1.40;99.90;;;;;;4993998;28;20050;-78
2024/01/21 06:11:10;;;;;;;1.90;1.77;;;1.30;99.90;;;;;;4984864;28;20507;-78
2024/01/21 06:13:35;;;;;;;1.20;1.20;;;1.40;99.90;;;;;;4987114;28;20560;-78
2024/01/21 06:16:02;;;;;;;1.40;1.33;;;1.30;99.90;;;;;;5004176;28;20050;-78
2024/01/21 06:18:28;;;;;;;2.67;2.47;;;1.30;99.90;;;;;;4969277;28;20085;-78
2024/01/21 06:20:54;;;;;;;1.90;1.47;;;1.30;99.90;;;;;;4983579;28;20042;-78
2024/01/21 06:23:20;;;;;;;1.73;1.63;;;1.30;99.90;;;;;;4999924;28;20064;-82
2024/01/21 06:25:45;;;;;;;3.20;1.40;;;1.30;99.90;;;;;;4973155;28;20044;-82
2024/01/21 06:28:11;;;;;;;0.93;0.93;;;1.30;99.90;;;;;;4999912;28;20050;-81
2024/01/21 06:30:36;;;;;;;1.83;1.63;;;1.30;99.90;;;;;;4978593;28;20214;-82
2024/01/21 06:33:02;;;;;;;3.23;2.57;;;1.30;99.90;;;;;;4997886;28;20053;-82
2024/01/21 06:35:28;;;;;;;2.03;1.60;;;1.30;99.90;;;;;;4994323;28;20065;-82
2024/01/21 06:37:54;;;;;;;1.40;1.30;;;1.30;99.90;;;;;;4993635;28;20046;-83
2024/01/21 06:40:22;;;;;;;2.50;1.73;;;1.30;99.90;;;;;;4995519;28;20084;-82
2024/01/21 06:42:48;;;;;;;2.70;1.83;;;1.30;99.90;;;;;;4984950;28;20057;-81
2024/01/21 06:45:14;;;;;;;1.70;1.60;;;1.30;99.90;;;;;;4974743;28;20400;-82
2024/01/21 06:47:40;;;;;;;2.60;1.37;;;1.30;99.90;;;;;;4997313;28;20038;-82
2024/01/21 06:50:06;;;;;;;3.17;2.87;;;1.30;99.90;;;;;;4984028;28;20049;-82
2024/01/21 06:52:32;;;;;;;1.93;1.83;;;1.30;99.90;;;;;;4993358;28;20039;-82
2024/01/21 06:54:57;;;;;;;3.07;1.53;;;1.30;99.90;;;;;;4999733;28;20153;-82
2024/01/21 06:57:23;;;;;;;1.93;1.83;;;1.30;99.90;;;;;;4999844;28;20487;-82
2024/01/21 06:59:50;;;;;;;1.77;1.67;;;1.40;99.90;;;;;;4984044;28;20038;-81
2024/01/21 07:02:16;;;;;;;3.17;1.53;;;1.30;99.90;;;;;;4967646;28;20053;-81
2024/01/21 07:04:41;;;;;;;2.53;2.37;;;1.40;99.90;;;;;;5003738;28;20426;-81
2024/01/21 07:07:08;;;;;;;1.83;1.73;;;1.40;99.90;;;;;;4982030;28;20405;-81
2024/01/21 07:09:34;;;;;;;3.90;1.80;;;1.40;99.90;;;;;;4988945;28;20066;-80
2024/01/21 07:12:00;;;;;;;5.73;1.97;;;1.40;99.90;;;;;;4982398;28;20046;-81
2024/01/21 07:14:26;;;;;;;1.30;1.07;;;1.40;99.90;;;;;;4992608;28;20050;-81
2024/01/21 07:16:51;;;;;;;0.97;0.97;;;1.50;99.90;;;;;;4981720;28;20050;-76
2024/01/21 07:19:17;;;;;;;0.87;0.87;;;1.40;99.90;;;;;;4983507;28;20046;-76
2024/01/21 07:21:42;;;;;;;2.03;1.53;;;1.50;99.90;;;;;;4992045;28;20030;-77
2024/01/21 07:24:08;;;;;;;2.10;1.57;;;1.50;99.90;;;;;;4977655;28;20038;-81
2024/01/21 07:26:34;;;;;;;4.70;1.77;;;1.50;99.90;;;;;;5004240;28;20124;-80
2024/01/21 07:29:00;;;;;;;1.40;1.30;;;1.50;99.90;;;;;;5003912;28;20583;-81
2024/01/21 07:31:26;;;;;;;3.87;2.03;;;1.50;99.90;;;;;;4964954;28;20065;-81
2024/01/21 07:33:51;;;;;;;2.93;2.03;;;1.50;99.90;;;;;;4972280;28;20042;-82
2024/01/21 07:36:17;;;;;;;3.20;2.03;;;1.50;99.90;;;;;;4991368;28;20404;-81
2024/01/21 07:38:42;;;;;;;1.70;1.57;;;1.50;99.90;;;;;;5002263;28;20152;-83
2024/01/21 07:41:08;;;;;;;3.03;1.10;;;1.50;99.90;;;;;;4984863;28;20081;-79
2024/01/21 07:43:34;;;;;;;3.67;2.77;;;1.60;99.90;;;;;;4987510;28;20045;-77
2024/01/21 07:45:59;;;;;;;3.80;2.30;;;1.60;99.90;;;;;;5004837;28;20149;-76
2024/01/21 07:48:25;;;;;;;2.13;2.00;;;1.60;99.90;;;;;;4982859;28;20048;-75
2024/01/21 07:50:51;;;;;;;1.20;1.10;;;1.60;99.90;;;;;;5001739;28;20128;-76
2024/01/21 07:53:20;;;;;;;2.17;2.07;;;1.60;99.90;;;;;;4995471;28;20191;-77
2024/01/21 07:55:45;;;;;;;2.53;2.30;;;1.60;99.90;;;;;;4981143;28;20039;-77
2024/01/21 07:58:12;;;;;;;1.57;1.50;;;1.60;99.90;;;;;;4966022;28;20499;-78
2024/01/21 08:00:38;;;;;;;1.63;1.53;;;1.60;99.90;;;;;;4979049;28;20046;-79
2024/01/21 08:03:05;;;;;;;4.53;2.33;;;1.60;99.90;;;;;;4984426;28;20539;-77
2024/01/21 08:05:32;;;;;;;1.60;1.57;;;1.70;99.90;;;;;;4995902;28;20521;-77
2024/01/21 08:07:58;;;;;;;1.67;1.43;;;1.60;99.90;;;;;;4990759;28;20142;-79
2024/01/21 08:10:24;;;;;;;2.83;2.37;;;1.60;99.90;;;;;;4990308;28;20613;-77
2024/01/21 08:12:50;;;;;;;1.60;1.50;;;1.60;99.90;;;;;;4990033;28;20045;-77
2024/01/21 08:15:16;;;;;;;2.77;1.83;;;1.60;99.90;;;;;;4991378;28;20124;-77
2024/01/21 08:17:41;;;;;;;7.13;2.40;;;1.60;99.90;;;;;;4981816;28;20081;-76
2024/01/21 08:20:07;;;;;;;5.07;2.37;;;1.60;99.90;;;;;;4980080;28;20128;-76
2024/01/21 08:22:33;;;;;;;1.30;1.20;;;1.60;99.90;;;;;;4979006;28;20056;-77
2024/01/21 08:24:58;;;;;;;1.67;1.57;;;1.60;99.90;;;;;;4980516;28;20043;-77
2024/01/21 08:27:24;;;;;;;4.40;2.33;;;1.60;99.90;;;;;;4979999;28;20536;-77
2024/01/21 08:29:49;;;;;;;4.77;2.70;;;1.60;99.90;;;;;;4978753;28;20061;-77
2024/01/21 08:32:15;;;;;;;1.33;1.23;;;1.60;99.90;;;;;;4980150;28;20422;-76
2024/01/21 08:34:41;;;;;;;1.97;1.67;;;1.60;99.90;;;;;;4978836;28;20334;-77
2024/01/21 08:37:06;;;;;;;4.50;2.67;;;1.60;99.90;;;;;;4976214;28;20513;-76
2024/01/21 08:39:32;;;;;;;3.77;3.47;;;1.60;99.90;;;;;;4961716;28;20481;-76
2024/01/21 08:41:58;;;;;;;4.17;3.03;;;1.60;99.90;;;;;;4977313;28;20046;-77
2024/01/21 08:44:23;;;;;;;1.80;1.73;;;1.70;99.90;;;;;;4978595;28;20050;-76
2024/01/21 08:46:49;;;;;;;2.67;2.47;;;1.70;99.90;;;;;;4979979;28;20484;-76
2024/01/21 08:49:14;;;;;;;4.07;3.70;;;1.70;99.90;;;;;;4979687;28;20046;-76
2024/01/21 08:51:41;;;;;;;2.53;2.17;;;1.70;99.90;;;;;;4979932;28;20038;-77
2024/01/21 08:54:07;;;;;;;2.20;2.00;;;1.70;99.90;;;;;;4978766;28;20042;-77
2024/01/21 08:56:35;;;;;;;3.07;2.27;;;1.70;99.90;;;;;;4981197;28;20050;-76
2024/01/21 08:59:00;;;;;;;2.63;1.73;;;1.70;99.90;;;;;;4980185;28;20560;-76
2024/01/21 09:01:26;;;;;;;1.60;1.50;;;1.70;99.90;;;;;;4997144;28;20042;-76
2024/01/21 09:03:52;;;;;;;3.47;2.40;;;1.80;99.90;;;;;;4982701;28;20046;-76
2024/01/21 09:06:18;;;;;;;5.20;3.53;;;1.80;99.90;;;;;;4982377;28;20081;-76
2024/01/21 09:08:44;;;;;;;2.10;2.00;;;1.80;99.90;;;;;;4999266;28;20050;-76
2024/01/21 09:11:11;;;;;;;3.33;1.97;;;1.80;99.90;;;;;;4999371;28;20060;-77
2024/01/21 09:13:37;;;;;;;1.27;1.17;;;1.90;99.90;;;;;;4965762;28;20050;-76
2024/01/21 09:16:04;;;;;;;2.63;2.20;;;1.90;99.90;;;;;;5000057;28;20420;-76
2024/01/21 09:18:30;;;;;;;4.00;2.37;;;1.90;99.90;;;;;;4982782;28;20278;-76
2024/01/21 09:20:58;;;;;;;1.53;1.43;;;2.00;99.90;;;;;;5000127;28;20045;-77
2024/01/21 09:23:24;;;;;;;2.40;2.20;;;2.00;99.90;;;;;;4999698;28;20049;-77
2024/01/21 09:25:49;;;;;;;1.90;1.80;;;2.10;99.90;;;;;;5000514;28;20042;-78
2024/01/21 09:28:15;;;;;;;2.50;1.60;;;2.10;99.90;;;;;;4966805;28;20046;-76
2024/01/21 09:30:41;;;;;;;3.08;2.78;;;2.10;99.90;;;;;;4966214;28;20046;-76
2024/01/21 09:33:06;;;;;;;2.10;2.00;;;2.10;99.90;;;;;;4999440;28;20058;-76
2024/01/21 09:35:32;;;;;;;2.60;1.13;;;2.10;99.90;;;;;;4982604;28;20057;-76
2024/01/21 09:37:57;;;;;;;2.63;2.43;;;2.20;99.90;;;;;;4998638;28;20037;-76
2024/01/21 09:40:23;;;;;;;6.07;3.60;;;2.20;99.90;;;;;;4999621;28;20057;-77
2024/01/21 09:42:50;;;;;;;2.30;2.00;;;2.20;99.90;;;;;;5000318;28;20145;-77
2024/01/21 09:45:17;;;;;;;5.73;3.70;;;2.20;99.90;;;;;;4982782;28;20448;-77
2024/01/21 09:47:43;;;;;;;1.75;1.65;;;2.20;99.90;;;;;;4984190;28;20262;-77
2024/01/21 09:50:10;;;;;;;3.10;2.88;;;2.20;99.90;;;;;;4985662;28;20149;-77
2024/01/21 09:52:36;;;;;;;2.72;1.98;;;2.30;99.90;;;;;;5002691;28;20686;-77
2024/01/21 09:55:02;;;;;;;3.22;2.20;;;2.30;99.90;;;;;;4985628;28;20263;-76
2024/01/21 09:57:28;;;;;;;10.38;2.70;;;2.30;99.90;;;;;;4986142;28;20052;-77
2024/01/21 09:59:55;;;;;;;2.42;2.28;;;2.40;99.90;;;;;;4999029;28;20069;-77
2024/01/21 10:02:22;;;;;;;2.15;1.95;;;2.40;99.90;;;;;;4966122;28;20065;-77
2024/01/21 10:04:48;;;;;;;1.80;1.70;;;2.40;99.90;;;;;;4963058;28;20339;-76
2024/01/21 10:07:14;;;;;;;1.92;1.83;;;2.40;99.90;;;;;;4961324;28;20639;-76
2024/01/21 10:09:39;;;;;;;1.30;1.25;;;2.40;99.90;;;;;;4962495;28;20051;-76
2024/01/21 10:12:07;;;;;;;2.20;2.10;;;2.40;99.90;;;;;;4962536;28;20046;-76
2024/01/21 10:14:32;;;;;;;1.33;1.30;;;2.40;99.90;;;;;;4946383;28;20061;-77
2024/01/21 10:16:59;;;;;;;1.88;1.75;;;2.50;99.90;;;;;;4964023;28;20482;-77
2024/01/21 10:19:36;;;;;;;1.67;1.58;;;2.50;99.90;;;;;;4963788;28;20101;-77
2024/01/21 10:22:13;;;;;;;2.60;2.20;;;2.50;99.90;;;;;;4962902;28;20627;-76
2024/01/21 10:24:49;;;;;;;2.83;1.90;;;2.50;99.90;;;;;;4962473;28;20622;-76
2024/01/21 10:27:17;;;;;;;1.65;1.08;;;2.50;99.90;;;;;;4962519;28;20098;-76
2024/01/21 10:29:45;;;;;;;2.20;1.58;;;2.60;99.90;;;;;;4962117;28;20512;-76
2024/01/21 10:32:12;;;;;;;2.63;2.53;;;2.60;99.90;;;;;;4963407;28;20050;-77
2024/01/21 10:34:40;;;;;;;2.08;1.95;;;2.60;99.90;;;;;;4962225;28;20047;-76
2024/01/21 10:37:07;;;;;;;2.42;2.28;;;2.70;99.90;;;;;;4962347;28;20046;-77
2024/01/21 10:39:37;;;;;;;3.10;2.90;;;2.70;99.90;;;;;;4963305;28;20433;-76
2024/01/21 10:42:05;;;;;;;2.35;1.52;;;2.70;99.90;;;;;;4961730;28;20046;-76
2024/01/21 10:44:30;;;;;;;3.63;2.53;;;2.70;99.90;;;;;;4946387;28;20050;-77
2024/01/21 10:46:57;;;;;;;3.45;2.13;;;2.70;99.90;;;;;;4961948;28;20031;-76
2024/01/21 10:49:23;;;;;;;4.60;3.67;;;2.80;99.90;;;;;;4961918;28;20050;-76
2024/01/21 10:51:52;;;;;;;2.30;2.10;;;2.80;99.90;;;;;;4963105;28;20051;-77
2024/01/21 10:54:18;;;;;;;2.15;2.05;;;2.80;99.90;;;;;;4961942;28;20485;-76
2024/01/21 10:56:44;;;;;;;2.85;2.55;;;2.80;99.90;;;;;;4962240;28;20054;-77
2024/01/21 10:59:11;;;;;;;2.75;2.28;;;2.80;99.90;;;;;;4961876;28;20118;-77
2024/01/21 11:01:39;;;;;;;2.92;2.72;;;2.80;99.90;;;;;;4963414;28;20478;-77
2024/01/21 11:04:12;;;;;;;3.20;2.97;;;2.90;99.90;;;;;;4962163;28;20101;-77
2024/01/21 11:06:48;;;;;;;2.60;2.40;;;2.90;99.90;;;;;;4964052;28;20572;-76
2024/01/21 11:09:16;;;;;;;3.70;3.38;;;2.90;99.90;;;;;;4964503;28;20046;-76
2024/01/21 11:11:49;;;;;;;2.25;2.15;;;2.90;99.90;;;;;;4965182;28;20054;-76
2024/01/21 11:14:33;;;;;;;3.28;2.03;;;2.90;99.90;;;;;;4982093;28;20513;-77
2024/01/21 11:17:03;;;;;;;2.00;1.40;;;2.90;99.90;;;;;;4964782;28;20053;-77
2024/01/21 11:19:58;;;;;;;4.10;3.72;;;2.90;99.90;;;;;;4982264;28;20169;-77
2024/01/21 11:22:25;;;;;;;5.10;4.47;;;2.90;99.90;;;;;;4951783;28;20520;-77
2024/01/21 11:24:55;;;;;;;2.45;2.17;;;2.90;99.90;;;;;;4981179;28;20432;-77
2024/01/21 11:27:26;;;;;;;2.72;2.17;;;2.90;99.90;;;;;;4965074;28;20151;-77
2024/01/21 11:29:57;;;;;;;1.60;1.52;;;2.90;99.90;;;;;;4981321;28;20540;-77
2024/01/21 11:32:25;;;;;;;2.63;2.45;;;3.00;99.90;;;;;;4964548;28;20054;-76
2024/01/21 11:34:52;;;;;;;4.07;3.30;;;3.00;99.90;;;;;;4981589;28;20057;-77
2024/01/21 11:37:18;;;;;;;3.25;2.95;;;3.00;99.90;;;;;;4947723;28;20050;-76
2024/01/21 11:39:43;;;;;;;4.50;2.63;;;3.00;99.90;;;;;;4981178;28;20425;-76
2024/01/21 11:42:09;;;;;;;4.95;2.83;;;3.00;99.90;;;;;;4948066;28;20046;-77
2024/01/21 11:44:36;;;;;;;4.25;3.95;;;3.00;99.90;;;;;;4981559;28;20061;-77
2024/01/21 11:47:04;;;;;;;4.05;2.97;;;3.00;99.90;;;;;;4963932;28;20077;-77
2024/01/21 11:49:34;;;;;;;2.97;2.75;;;3.00;99.90;;;;;;4981905;28;20039;-77
2024/01/21 11:52:05;;;;;;;2.50;2.30;;;3.00;99.90;;;;;;4962679;28;20054;-77
2024/01/21 11:54:32;;;;;;;4.57;3.70;;;3.10;99.90;;;;;;4963757;28;20042;-77
2024/01/21 11:56:57;;;;;;;7.50;2.38;;;3.10;99.90;;;;;;4963662;28;20122;-76
2024/01/21 11:59:24;;;;;;;4.15;3.17;;;3.10;99.90;;;;;;4981788;28;20592;-77
2024/01/21 12:01:50;;;;;;;3.88;2.78;;;3.10;99.90;;;;;;4982933;28;20060;-78
2024/01/21 12:04:16;;;;;;;7.72;3.92;;;3.10;99.90;;;;;;5001227;28;20042;-76
2024/01/21 12:06:47;;;;;;;3.53;3.22;;;3.10;99.90;;;;;;4982764;28;20061;-77
2024/01/21 12:09:14;;;;;;;3.83;2.47;;;3.10;99.90;;;;;;4983030;28;20192;-77
2024/01/21 12:11:40;;;;;;;5.78;3.45;;;3.20;99.90;;;;;;4983018;28;20339;-76
2024/01/21 12:14:13;;;;;;;7.35;4.55;;;3.20;99.90;;;;;;4996616;28;20279;-80
2024/01/21 12:16:39;;;;;;;;;;;3.20;99.90;;;;;;4980538;28;20500;-77
2024/01/21 12:19:05;;;;;;;9.75;5.50;;;3.30;99.90;;;;;;4981367;28;20335;-76
2024/01/21 12:21:32;;;;;;;3.55;3.25;;;3.30;99.90;;;;;;4982986;28;20139;-76
2024/01/21 12:23:59;;;;;;;3.17;2.88;;;3.30;99.90;;;;;;5000893;28;20121;-76
2024/01/21 12:26:25;;;;;;;3.40;3.10;;;3.40;99.90;;;;;;5000765;28;20061;-76
2024/01/21 12:29:04;;;;;;;7.75;2.80;;;3.40;99.90;;;;;;4983510;28;20046;-77
2024/01/21 12:31:34;;;;;;;11.43;4.07;;;3.40;99.90;;;;;;4980741;28;20046;-76
2024/01/21 12:34:02;;;;;;;4.53;3.40;;;3.40;99.90;;;;;;4979325;28;20129;-76
2024/01/21 12:36:45;;;;;;;4.93;3.35;;;3.40;99.90;;;;;;4980344;28;20138;-76
2024/01/21 12:39:12;;;;;;;4.30;3.58;;;3.40;99.90;;;;;;4978842;28;20112;-76
2024/01/21 12:41:38;;;;;;;2.67;2.47;;;3.40;99.90;;;;;;4979493;28;20540;-77
2024/01/21 12:44:04;;;;;;;2.65;2.50;;;3.40;99.90;;;;;;4977145;28;20231;-76
2024/01/21 12:46:30;;;;;;;3.00;2.80;;;3.50;99.90;;;;;;4966674;28;20496;-77
2024/01/21 12:48:56;;;;;;;3.13;2.92;;;3.50;99.90;;;;;;4983121;28;20112;-76
2024/01/21 12:51:25;;;;;;;4.63;2.22;;;3.50;99.90;;;;;;4981887;28;20050;-76
2024/01/21 12:53:52;;;;;;;3.53;3.22;;;3.50;99.90;;;;;;4982647;28;20045;-77